Time;durP1;ratioP1;P1;durP2;ratioP2;P2;SDS_P1;SDS_P2;PMS_P1;PMS_P2;Temp;Humidity;BMP_temperature;BMP_pressure;BME280_temperature;BME280_humidity;BME280_pressure;Samples;Min_cycle;Max_cycle;Signal;HPM_P1;HPM_P2
2023/07/06 00:01:48;;;;;;;4.23;2.20;;;14.30;99.90;;;;;;6084478;23;20092;-78
2023/07/06 00:04:14;;;;;;;4.80;1.80;;;14.20;99.90;;;;;;6060447;23;20348;-77
2023/07/06 00:06:39;;;;;;;3.00;1.98;;;14.30;99.90;;;;;;6060982;23;20037;-77
2023/07/06 00:09:05;;;;;;;5.45;1.70;;;14.30;99.90;;;;;;6057050;23;20097;-77
2023/07/06 00:11:36;;;;;;;1.95;1.50;;;14.40;99.90;;;;;;6062320;23;20033;-77
2023/07/06 00:14:02;;;;;;;5.35;1.75;;;14.30;99.90;;;;;;6061212;23;20068;-77
2023/07/06 00:16:28;;;;;;;3.40;2.15;;;14.30;99.90;;;;;;6057731;23;20022;-77
2023/07/06 00:18:54;;;;;;;5.50;2.25;;;14.30;99.90;;;;;;6083956;23;20466;-77
2023/07/06 00:21:19;;;;;;;5.03;1.60;;;14.30;99.90;;;;;;6059102;23;20303;-78
2023/07/06 00:23:45;;;;;;;3.72;1.70;;;14.30;99.90;;;;;;6082429;23;20080;-78
2023/07/06 00:26:10;;;;;;;5.03;2.05;;;14.20;99.90;;;;;;6059108;23;20093;-78
2023/07/06 00:28:36;;;;;;;6.57;1.92;;;14.20;99.90;;;;;;6061746;23;20021;-78
2023/07/06 00:31:10;;;;;;;3.35;1.70;;;14.20;99.90;;;;;;6086677;23;20013;-78
2023/07/06 00:33:36;;;;;;;3.67;2.30;;;14.10;99.90;;;;;;6060968;23;20024;-78
2023/07/06 00:36:03;;;;;;;2.63;1.70;;;14.10;99.90;;;;;;6059483;23;20005;-78
2023/07/06 00:38:28;;;;;;;3.13;1.77;;;14.10;99.90;;;;;;6085210;23;20018;-78
2023/07/06 00:40:58;;;;;;;3.38;2.28;;;14.10;99.90;;;;;;6057522;23;20020;-78
2023/07/06 00:43:27;;;;;;;9.25;1.90;;;14.10;99.90;;;;;;6060143;23;20515;-78
2023/07/06 00:46:05;;;;;;;2.42;1.70;;;14.10;99.90;;;;;;6059732;23;20018;-78
2023/07/06 00:48:33;;;;;;;2.13;1.63;;;14.10;99.90;;;;;;6083544;23;20010;-78
2023/07/06 00:51:02;;;;;;;3.03;1.75;;;14.10;99.90;;;;;;6060682;23;20457;-78
2023/07/06 00:53:32;;;;;;;4.68;2.15;;;14.10;99.90;;;;;;6058635;23;20093;-78
2023/07/06 00:55:58;;;;;;;3.53;1.90;;;14.20;99.90;;;;;;6036075;23;20387;-78
2023/07/06 00:58:29;;;;;;;2.13;1.63;;;14.00;99.90;;;;;;6062251;23;20021;-78
2023/07/06 01:00:56;;;;;;;4.93;1.98;;;14.00;99.90;;;;;;6058426;23;20017;-78
2023/07/06 01:03:22;;;;;;;3.88;2.17;;;14.10;99.90;;;;;;6034860;23;20022;-78
2023/07/06 01:05:48;;;;;;;5.97;2.13;;;14.10;99.90;;;;;;6059742;23;20317;-78
2023/07/06 01:08:16;;;;;;;4.05;1.63;;;14.10;99.90;;;;;;6056549;23;20018;-78
2023/07/06 01:10:43;;;;;;;4.30;2.10;;;14.10;99.90;;;;;;6083607;23;20050;-78
2023/07/06 01:13:09;;;;;;;4.82;2.30;;;14.10;99.90;;;;;;6086000;23;20456;-78
2023/07/06 01:15:38;;;;;;;2.92;1.95;;;14.00;99.90;;;;;;6059853;23;20025;-78
2023/07/06 01:18:14;;;;;;;2.40;1.70;;;14.00;99.90;;;;;;6036903;23;20017;-78
2023/07/06 01:20:53;;;;;;;2.50;2.15;;;14.00;99.90;;;;;;6063540;23;20520;-79
2023/07/06 01:23:34;;;;;;;3.47;2.10;;;14.00;99.90;;;;;;6061646;23;20037;-78
2023/07/06 01:26:00;;;;;;;3.70;2.10;;;13.90;99.90;;;;;;6083944;23;20014;-78
2023/07/06 01:28:58;;;;;;;2.85;2.03;;;13.90;99.90;;;;;;6083986;23;20171;-78
2023/07/06 01:31:44;;;;;;;9.60;2.40;;;13.80;99.90;;;;;;6072854;23;20021;-78
2023/07/06 01:34:20;;;;;;;;;;;13.70;99.90;;;;;;6077196;23;20006;-78
2023/07/06 01:36:46;;;;;;;5.30;2.42;;;13.80;99.90;;;;;;6102289;23;20409;-78
2023/07/06 01:39:20;;;;;;;5.78;2.40;;;13.80;99.90;;;;;;6055286;23;20010;-78
2023/07/06 01:41:46;;;;;;;4.13;2.17;;;13.70;99.90;;;;;;6055810;23;20397;-78
2023/07/06 01:44:13;;;;;;;8.27;2.63;;;13.70;99.90;;;;;;6035377;23;20085;-77
2023/07/06 01:46:42;;;;;;;5.63;2.30;;;13.70;99.90;;;;;;6056966;23;20440;-77
2023/07/06 01:49:08;;;;;;;4.38;2.47;;;13.70;99.90;;;;;;6061871;23;20049;-78
2023/07/06 01:51:50;;;;;;;3.22;1.92;;;13.70;99.90;;;;;;6060316;23;20360;-77
2023/07/06 01:54:18;;;;;;;2.85;2.40;;;13.60;99.90;;;;;;6062374;23;20017;-79
2023/07/06 01:56:53;;;;;;;4.80;2.30;;;13.50;99.90;;;;;;6033319;23;20510;-78
2023/07/06 01:59:20;;;;;;;8.15;2.45;;;13.50;99.90;;;;;;6034123;23;20025;-78
2023/07/06 02:01:48;;;;;;;4.30;2.10;;;13.50;99.90;;;;;;6036813;23;20348;-78
2023/07/06 02:04:14;;;;;;;9.55;2.60;;;13.60;99.90;;;;;;6036528;23;20456;-78
2023/07/06 02:06:39;;;;;;;4.70;3.53;;;13.50;99.90;;;;;;6059940;23;20069;-78
2023/07/06 02:09:06;;;;;;;2.55;2.08;;;13.50;99.90;;;;;;6061819;23;20472;-78
2023/07/06 02:11:33;;;;;;;4.53;2.13;;;13.40;99.90;;;;;;6057084;23;20105;-78
2023/07/06 02:13:58;;;;;;;4.93;2.78;;;13.40;99.90;;;;;;6058790;23;20539;-78
2023/07/06 02:16:24;;;;;;;5.93;3.20;;;13.30;99.90;;;;;;6060341;23;20042;-79
2023/07/06 02:18:49;;;;;;;2.85;2.17;;;13.30;99.90;;;;;;6081420;23;20016;-78
2023/07/06 02:21:15;;;;;;;3.25;2.10;;;13.30;99.90;;;;;;6060671;23;20014;-79
2023/07/06 02:23:41;;;;;;;5.13;2.67;;;13.30;99.90;;;;;;6014436;23;20021;-78
2023/07/06 02:26:07;;;;;;;5.90;2.40;;;13.40;99.90;;;;;;6054607;23;20034;-78
2023/07/06 02:28:32;;;;;;;3.65;2.03;;;13.40;99.90;;;;;;6067185;23;20010;-78
2023/07/06 02:30:58;;;;;;;7.07;2.05;;;13.40;99.90;;;;;;6055473;23;20091;-78
2023/07/06 02:33:27;;;;;;;3.00;2.47;;;13.50;99.90;;;;;;6056567;23;20018;-79
2023/07/06 02:35:52;;;;;;;3.35;2.28;;;13.40;99.90;;;;;;6040013;23;20034;-78
2023/07/06 02:38:19;;;;;;;4.40;2.03;;;13.40;99.90;;;;;;6057559;23;20105;-78
2023/07/06 02:40:46;;;;;;;6.63;2.50;;;13.40;99.90;;;;;;6064513;23;20038;-78
2023/07/06 02:43:12;;;;;;;6.35;2.45;;;13.50;99.90;;;;;;6076890;23;20345;-78
2023/07/06 02:45:37;;;;;;;9.48;2.90;;;13.40;99.90;;;;;;6057020;23;20054;-78
2023/07/06 02:48:04;;;;;;;3.38;2.28;;;13.40;99.90;;;;;;6033873;23;20606;-78
2023/07/06 02:50:29;;;;;;;2.55;2.08;;;13.30;99.90;;;;;;6030347;23;20048;-77
2023/07/06 02:52:55;;;;;;;6.78;2.38;;;13.30;99.90;;;;;;6030532;23;20006;-77
2023/07/06 02:55:22;;;;;;;5.72;2.35;;;13.30;99.90;;;;;;6042266;23;20011;-78
2023/07/06 02:57:48;;;;;;;4.35;3.13;;;13.30;99.90;;;;;;6030391;23;20019;-78
2023/07/06 03:00:14;;;;;;;3.65;2.08;;;13.30;99.90;;;;;;6080376;23;20109;-79
2023/07/06 03:02:40;;;;;;;4.70;2.60;;;13.30;99.90;;;;;;6081849;23;20034;-78
2023/07/06 03:05:06;;;;;;;5.50;2.08;;;13.30;99.90;;;;;;6077464;23;20002;-79
2023/07/06 03:07:35;;;;;;;5.15;3.10;;;13.30;99.90;;;;;;6082456;23;20072;-78
2023/07/06 03:10:01;;;;;;;4.38;2.25;;;13.20;99.90;;;;;;6056900;23;20337;-78
2023/07/06 03:12:30;;;;;;;6.05;2.28;;;13.20;99.90;;;;;;6051874;23;20364;-79
2023/07/06 03:14:57;;;;;;;3.45;1.70;;;13.30;99.90;;;;;;6058098;23;20011;-78
2023/07/06 03:17:22;;;;;;;5.10;2.42;;;13.30;99.90;;;;;;6057861;23;20010;-78
2023/07/06 03:19:48;;;;;;;4.63;2.15;;;13.30;99.90;;;;;;6053129;23;20010;-78
2023/07/06 03:22:17;;;;;;;5.22;2.10;;;13.30;99.90;;;;;;6079741;23;20021;-78
2023/07/06 03:24:44;;;;;;;4.72;2.45;;;13.20;99.90;;;;;;6082256;23;20019;-78
2023/07/06 03:27:10;;;;;;;5.03;2.55;;;13.20;99.90;;;;;;6052743;23;20019;-78
2023/07/06 03:29:36;;;;;;;3.25;2.60;;;13.20;99.90;;;;;;6056566;23;20109;-78
2023/07/06 03:32:03;;;;;;;6.78;2.80;;;13.20;99.90;;;;;;6033659;23;20337;-77
2023/07/06 03:34:28;;;;;;;5.45;2.13;;;13.10;99.90;;;;;;6054732;23;20018;-78
2023/07/06 03:36:54;;;;;;;4.28;2.35;;;13.10;99.90;;;;;;6058279;23;20505;-78
2023/07/06 03:39:20;;;;;;;3.95;2.42;;;13.20;99.90;;;;;;6056927;23;20349;-78
2023/07/06 03:41:45;;;;;;;2.78;2.15;;;13.20;99.90;;;;;;6078831;23;20455;-79
2023/07/06 03:44:11;;;;;;;4.15;2.10;;;13.20;99.90;;;;;;6032872;23;20013;-78
2023/07/06 03:46:36;;;;;;;6.15;2.20;;;13.20;99.90;;;;;;6055631;23;20026;-79
2023/07/06 03:49:05;;;;;;;8.88;2.42;;;13.20;99.90;;;;;;6052999;23;20345;-78
2023/07/06 03:51:31;;;;;;;6.40;2.08;;;13.20;99.90;;;;;;6058750;23;20030;-78
2023/07/06 03:53:57;;;;;;;2.63;1.70;;;13.10;99.90;;;;;;6035684;23;20014;-78
2023/07/06 03:56:28;;;;;;;5.90;2.63;;;13.20;99.90;;;;;;6061609;23;20467;-78
2023/07/06 03:58:56;;;;;;;4.57;1.88;;;13.10;99.90;;;;;;6015329;23;20467;-79
2023/07/06 04:01:22;;;;;;;6.22;2.00;;;13.10;99.90;;;;;;6056285;23;20081;-79
2023/07/06 04:03:49;;;;;;;3.03;1.88;;;13.10;99.90;;;;;;6063284;23;20421;-79
2023/07/06 04:06:15;;;;;;;3.92;1.60;;;13.10;99.90;;;;;;6057271;23;20010;-79
2023/07/06 04:08:40;;;;;;;3.45;1.73;;;13.10;99.90;;;;;;6078611;23;20338;-78
2023/07/06 04:11:06;;;;;;;4.95;2.33;;;13.10;99.90;;;;;;6076708;23;20616;-78
2023/07/06 04:13:32;;;;;;;7.22;2.30;;;13.10;99.90;;;;;;6080647;23;20025;-78
2023/07/06 04:15:58;;;;;;;6.57;2.30;;;13.20;99.90;;;;;;6055870;23;20460;-78
2023/07/06 04:18:24;;;;;;;5.45;2.25;;;13.20;99.90;;;;;;6055934;23;20018;-78
2023/07/06 04:20:49;;;;;;;7.72;2.60;;;13.20;99.90;;;;;;6053644;23;20010;-79
2023/07/06 04:23:15;;;;;;;3.78;2.00;;;13.30;99.90;;;;;;6054990;23;20034;-79
2023/07/06 04:25:41;;;;;;;9.48;1.98;;;13.30;99.90;;;;;;6080231;23;20018;-78
2023/07/06 04:28:11;;;;;;;7.03;2.22;;;13.40;99.90;;;;;;6075990;23;20339;-78
2023/07/06 04:30:39;;;;;;;4.13;1.88;;;13.50;99.90;;;;;;6057475;23;20388;-78
2023/07/06 04:33:06;;;;;;;4.72;2.42;;;13.50;99.90;;;;;;6080781;23;20010;-78
2023/07/06 04:35:32;;;;;;;7.38;2.70;;;13.60;99.90;;;;;;6030323;23;20018;-78
2023/07/06 04:37:59;;;;;;;8.02;2.70;;;13.70;99.90;;;;;;6055908;23;20666;-78
2023/07/06 04:40:26;;;;;;;8.00;2.25;;;13.70;99.90;;;;;;6054849;23;20445;-78
2023/07/06 04:42:52;;;;;;;5.00;2.08;;;13.80;99.90;;;;;;6054324;23;20003;-79
2023/07/06 04:45:18;;;;;;;4.22;1.95;;;13.80;99.90;;;;;;6055528;23;20037;-78
2023/07/06 04:47:44;;;;;;;5.75;2.10;;;14.00;99.90;;;;;;6079561;23;20014;-79
2023/07/06 04:50:17;;;;;;;10.80;2.70;;;14.00;99.90;;;;;;6052345;23;20007;-78
2023/07/06 04:52:44;;;;;;;4.03;1.40;;;14.20;99.90;;;;;;6056538;23;20010;-78
2023/07/06 04:55:10;;;;;;;4.13;1.95;;;14.30;99.90;;;;;;6080531;23;20010;-78
2023/07/06 04:57:36;;;;;;;7.53;2.40;;;14.30;99.90;;;;;;6029014;23;20414;-78
2023/07/06 05:00:12;;;;;;;8.57;2.35;;;14.30;99.90;;;;;;6079489;23;20007;-79
2023/07/06 05:02:38;;;;;;;3.53;1.80;;;14.40;99.90;;;;;;6058667;23;20449;-78
2023/07/06 05:05:03;;;;;;;8.90;2.70;;;14.60;99.90;;;;;;6077751;23;20050;-78
2023/07/06 05:07:30;;;;;;;4.68;2.28;;;14.70;99.90;;;;;;6054047;23;20314;-78
2023/07/06 05:09:56;;;;;;;4.40;2.10;;;14.80;99.90;;;;;;6058390;23;20006;-78
2023/07/06 05:12:21;;;;;;;9.02;2.47;;;14.90;99.90;;;;;;6050844;23;20025;-78
2023/07/06 05:14:47;;;;;;;6.43;1.98;;;15.00;99.90;;;;;;6055778;23;20022;-78
2023/07/06 05:17:13;;;;;;;8.23;2.25;;;15.30;99.90;;;;;;6080664;23;20034;-78
2023/07/06 05:19:38;;;;;;;4.18;2.22;;;15.50;99.90;;;;;;6054998;23;20349;-78
2023/07/06 05:22:04;;;;;;;6.70;2.13;;;15.60;99.90;;;;;;6079103;23;20375;-78
2023/07/06 05:24:30;;;;;;;4.85;1.65;;;15.90;99.90;;;;;;6080532;23;20021;-78
2023/07/06 05:26:55;;;;;;;5.40;2.08;;;16.20;99.90;;;;;;6065173;23;20014;-78
2023/07/06 05:29:21;;;;;;;3.85;2.05;;;16.20;99.90;;;;;;6080360;23;20023;-78
2023/07/06 05:31:48;;;;;;;7.65;1.90;;;16.50;99.90;;;;;;6055084;23;20081;-77
2023/07/06 05:34:13;;;;;;;5.05;1.83;;;16.40;99.90;;;;;;6076290;23;20017;-78
2023/07/06 05:36:39;;;;;;;8.68;1.55;;;16.60;99.90;;;;;;6053924;23;20348;-78
2023/07/06 05:39:05;;;;;;;7.43;2.03;;;16.60;99.90;;;;;;6078704;23;20017;-79
2023/07/06 05:41:31;;;;;;;5.22;2.38;;;16.40;99.90;;;;;;6052364;23;20022;-79
2023/07/06 05:43:56;;;;;;;3.55;1.55;;;16.50;99.90;;;;;;6031840;23;20025;-80
2023/07/06 05:46:23;;;;;;;4.32;1.58;;;16.40;99.90;;;;;;6053300;23;20082;-80
2023/07/06 05:48:49;;;;;;;6.38;1.85;;;16.50;99.90;;;;;;6058108;23;20014;-79
2023/07/06 05:51:15;;;;;;;11.93;2.83;;;16.80;99.90;;;;;;6053594;23;20020;-81
2023/07/06 05:53:40;;;;;;;3.63;1.90;;;16.90;99.90;;;;;;6053250;23;20070;-80
2023/07/06 05:56:06;;;;;;;11.02;2.28;;;17.50;99.90;;;;;;6055346;23;20020;-80
2023/07/06 05:58:32;;;;;;;6.95;2.10;;;16.90;99.90;;;;;;6052467;23;20025;-80
2023/07/06 06:00:59;;;;;;;4.32;1.02;;;17.30;99.90;;;;;;6031921;23;20362;-80
2023/07/06 06:03:25;;;;;;;4.50;2.35;;;16.70;99.90;;;;;;6057303;23;20026;-80
2023/07/06 06:05:52;;;;;;;8.30;1.95;;;17.00;99.90;;;;;;6030343;23;20018;-80
2023/07/06 06:08:18;;;;;;;4.50;2.10;;;17.40;99.90;;;;;;6055096;23;20393;-80
2023/07/06 06:10:44;;;;;;;6.03;2.47;;;17.50;99.90;;;;;;6060417;23;20018;-80
2023/07/06 06:13:10;;;;;;;7.80;2.03;;;17.00;99.90;;;;;;6057341;23;20014;-80
2023/07/06 06:15:36;;;;;;;7.68;2.17;;;17.60;99.90;;;;;;6058529;23;20077;-80
2023/07/06 06:18:02;;;;;;;7.22;2.20;;;17.60;99.90;;;;;;6059369;23;20097;-80
2023/07/06 06:20:28;;;;;;;7.50;2.08;;;17.90;99.90;;;;;;6059697;23;20397;-80
2023/07/06 06:22:54;;;;;;;8.20;2.30;;;18.20;99.90;;;;;;6060590;23;20368;-80
2023/07/06 06:25:20;;;;;;;6.57;2.13;;;18.50;99.90;;;;;;6059273;23;20015;-79
2023/07/06 06:27:46;;;;;;;6.10;2.22;;;18.50;99.90;;;;;;6058556;23;20034;-79
2023/07/06 06:30:14;;;;;;;4.90;2.13;;;18.80;99.90;;;;;;6059252;23;20007;-79
2023/07/06 06:32:40;;;;;;;9.77;2.67;;;18.70;99.90;;;;;;6058973;23;20018;-78
2023/07/06 06:35:22;;;;;;;9.60;2.10;;;18.80;99.90;;;;;;6056295;23;20440;-79
2023/07/06 06:37:48;;;;;;;7.22;2.25;;;18.90;99.90;;;;;;6061799;23;20013;-79
2023/07/06 06:40:14;;;;;;;9.15;2.03;;;19.30;99.90;;;;;;6086109;23;20006;-79
2023/07/06 06:42:40;;;;;;;11.38;2.53;;;18.50;99.90;;;;;;6040305;23;20025;-79
2023/07/06 06:45:06;;;;;;;8.82;3.03;;;18.50;99.90;;;;;;6038011;23;20441;-79
2023/07/06 06:47:32;;;;;;;4.95;2.13;;;19.00;99.90;;;;;;6059717;23;20021;-79
2023/07/06 06:49:58;;;;;;;11.50;2.80;;;19.10;99.90;;;;;;6041083;23;20093;-79
2023/07/06 06:52:25;;;;;;;6.63;2.00;;;19.20;99.90;;;;;;6066143;23;20089;-79
2023/07/06 06:54:51;;;;;;;6.75;1.73;;;19.10;99.90;;;;;;6058956;23;20326;-79
2023/07/06 06:57:17;;;;;;;10.52;2.83;;;18.60;99.90;;;;;;6083355;23;20105;-79
2023/07/06 06:59:43;;;;;;;6.43;2.38;;;18.70;99.90;;;;;;6040079;23;20503;-79
2023/07/06 07:02:09;;;;;;;6.22;1.77;;;18.60;99.90;;;;;;6088557;23;20013;-79
2023/07/06 07:04:35;;;;;;;5.85;2.35;;;18.40;99.90;;;;;;6087288;23;20018;-79
2023/07/06 07:07:03;;;;;;;10.77;2.70;;;18.40;99.90;;;;;;6086888;23;20444;-79
2023/07/06 07:09:29;;;;;;;8.68;2.90;;;18.40;99.90;;;;;;6088273;23;20024;-79
2023/07/06 07:11:55;;;;;;;5.85;1.85;;;19.50;99.90;;;;;;6083932;23;20053;-78
2023/07/06 07:14:20;;;;;;;5.60;2.33;;;20.10;99.90;;;;;;6063144;23;20017;-78
2023/07/06 07:16:46;;;;;;;9.30;2.60;;;20.70;99.90;;;;;;6066843;23;20317;-78
2023/07/06 07:19:13;;;;;;;6.47;1.98;;;20.20;99.90;;;;;;6064638;23;20014;-79
2023/07/06 07:21:38;;;;;;;6.65;2.33;;;20.70;99.90;;;;;;6061950;23;20026;-79
2023/07/06 07:24:04;;;;;;;13.40;2.40;;;20.60;99.30;;;;;;6090101;23;20105;-79
2023/07/06 07:26:30;;;;;;;11.32;2.55;;;20.80;99.90;;;;;;6090217;23;20017;-79
2023/07/06 07:28:56;;;;;;;8.35;2.03;;;21.10;99.70;;;;;;6060221;23;20353;-79
2023/07/06 07:31:22;;;;;;;10.13;2.13;;;21.00;99.90;;;;;;6060629;23;20021;-79
2023/07/06 07:33:48;;;;;;;12.18;2.90;;;21.20;99.30;;;;;;6063837;23;20006;-79
2023/07/06 07:36:17;;;;;;;3.83;2.15;;;21.70;99.90;;;;;;6061716;23;20021;-78
2023/07/06 07:38:43;;;;;;;8.23;2.20;;;21.90;99.90;;;;;;6070170;23;20006;-78
2023/07/06 07:41:09;;;;;;;8.70;2.38;;;22.30;99.80;;;;;;6064516;23;20048;-78
2023/07/06 07:43:36;;;;;;;6.47;1.95;;;22.70;99.90;;;;;;6033356;23;20022;-78
2023/07/06 07:46:04;;;;;;;5.80;1.52;;;21.60;96.10;;;;;;6037750;23;20014;-78
2023/07/06 07:48:32;;;;;;;14.70;2.58;;;21.50;97.40;;;;;;6062668;23;20439;-78
2023/07/06 07:50:58;;;;;;;10.63;2.20;;;22.20;99.90;;;;;;6034390;23;20614;-79
2023/07/06 07:53:25;;;;;;;6.10;1.70;;;22.60;96.90;;;;;;6061294;23;20010;-78
2023/07/06 07:55:53;;;;;;;10.55;2.80;;;22.30;95.20;;;;;;6063925;23;20006;-78
2023/07/06 07:58:18;;;;;;;8.70;2.00;;;22.70;97.40;;;;;;6033637;23;20014;-78
2023/07/06 08:00:48;;;;;;;7.82;2.22;;;22.80;95.40;;;;;;6061172;23;20099;-79
2023/07/06 08:03:14;;;;;;;8.00;2.10;;;22.70;94.10;;;;;;6063104;23;20006;-78
2023/07/06 08:05:40;;;;;;;10.27;2.22;;;22.90;93.50;;;;;;6075603;23;20021;-78
2023/07/06 08:08:06;;;;;;;9.57;2.25;;;23.40;93.60;;;;;;6065706;23;20020;-78
2023/07/06 08:10:35;;;;;;;4.97;2.10;;;23.10;93.70;;;;;;6062035;23;20449;-77
2023/07/06 08:13:02;;;;;;;7.03;1.63;;;23.60;96.80;;;;;;6054784;23;20018;-78
2023/07/06 08:15:27;;;;;;;7.95;2.15;;;24.40;95.60;;;;;;6064649;23;20441;-78
2023/07/06 08:17:53;;;;;;;7.25;1.95;;;24.80;94.80;;;;;;6083674;23;20006;-77
2023/07/06 08:20:19;;;;;;;7.95;2.08;;;25.00;92.40;;;;;;6064886;23;20010;-78
2023/07/06 08:22:46;;;;;;;9.75;2.08;;;24.30;90.80;;;;;;6083571;23;20021;-78
2023/07/06 08:25:12;;;;;;;3.38;1.20;;;24.20;90.80;;;;;;6061047;23;20057;-78
2023/07/06 08:27:39;;;;;;;5.88;2.08;;;23.90;91.00;;;;;;6061160;23;20005;-77
2023/07/06 08:30:06;;;;;;;8.05;2.47;;;24.10;91.10;;;;;;6082566;23;20511;-78
2023/07/06 08:32:33;;;;;;;6.05;2.08;;;24.20;90.30;;;;;;6061076;23;20097;-79
2023/07/06 08:35:01;;;;;;;4.70;1.40;;;23.90;86.30;;;;;;6062953;23;20520;-77
2023/07/06 08:37:26;;;;;;;9.30;2.13;;;24.10;87.90;;;;;;6057824;23;20009;-78
2023/07/06 08:39:52;;;;;;;5.75;1.90;;;23.70;87.60;;;;;;6059480;23;20006;-78
2023/07/06 08:42:18;;;;;;;5.40;1.25;;;24.60;90.90;;;;;;6061037;23;20024;-78
2023/07/06 08:44:49;;;;;;;5.13;1.67;;;24.60;84.60;;;;;;6081875;23;20029;-78
2023/07/06 08:47:15;;;;;;;3.95;1.80;;;24.80;85.20;;;;;;6038625;23;20020;-77
2023/07/06 08:49:43;;;;;;;4.63;1.33;;;24.80;87.20;;;;;;6063005;23;20014;-78
2023/07/06 08:52:10;;;;;;;4.97;1.27;;;25.30;88.80;;;;;;6087899;23;20459;-78
2023/07/06 08:54:36;;;;;;;3.90;1.50;;;25.60;86.30;;;;;;6061321;23;20021;-77
2023/07/06 08:57:03;;;;;;;5.70;1.80;;;25.80;84.00;;;;;;6039156;23;20671;-77
2023/07/06 08:59:37;;;;;;;6.47;1.88;;;26.00;86.80;;;;;;6061046;23;20021;-77
2023/07/06 09:02:19;;;;;;;8.23;1.67;;;26.10;83.70;;;;;;6086334;23;20014;-77
2023/07/06 09:04:46;;;;;;;4.97;1.52;;;25.80;82.70;;;;;;6041329;23;20014;-77
2023/07/06 09:07:13;;;;;;;4.53;1.08;;;26.20;83.30;;;;;;6040939;23;20010;-77
2023/07/06 09:09:47;;;;;;;5.85;1.52;;;26.50;81.40;;;;;;6067041;23;20022;-77
2023/07/06 09:12:17;;;;;;;5.00;1.60;;;25.80;80.00;;;;;;6046806;23;20010;-77
2023/07/06 09:14:43;;;;;;;3.20;1.20;;;25.70;80.80;;;;;;6014160;23;20566;-78
2023/07/06 09:17:15;;;;;;;3.72;1.35;;;26.10;82.00;;;;;;6072300;23;20093;-77
2023/07/06 09:19:40;;;;;;;5.97;1.40;;;26.50;81.10;;;;;;6014985;23;20033;-78
2023/07/06 09:22:09;;;;;;;4.30;1.40;;;26.80;79.30;;;;;;6059921;23;20601;-77
2023/07/06 09:24:34;;;;;;;5.55;1.55;;;26.60;80.70;;;;;;6056220;23;20504;-77
2023/07/06 09:27:08;;;;;;;4.50;1.33;;;27.00;80.80;;;;;;6036433;23;20037;-78
2023/07/06 09:29:34;;;;;;;5.53;1.40;;;27.40;79.50;;;;;;6063314;23;20021;-78
2023/07/06 09:32:12;;;;;;;4.43;1.55;;;27.60;76.60;;;;;;6055357;23;20010;-79
2023/07/06 09:34:39;;;;;;;4.32;1.67;;;27.60;75.80;;;;;;6079312;23;20014;-78
2023/07/06 09:37:04;;;;;;;3.33;1.55;;;27.60;76.10;;;;;;6020888;23;20018;-79
2023/07/06 09:39:30;;;;;;;11.60;1.95;;;27.80;73.70;;;;;;6046929;23;20800;-79
2023/07/06 09:41:57;;;;;;;4.93;1.35;;;27.90;75.30;;;;;;6058997;23;20015;-79
2023/07/06 09:44:31;;;;;;;4.15;1.42;;;28.00;74.10;;;;;;6083049;23;20014;-80
2023/07/06 09:46:58;;;;;;;3.80;1.50;;;28.10;73.10;;;;;;6041034;23;20188;-79
2023/07/06 09:49:28;;;;;;;4.85;1.40;;;28.10;73.20;;;;;;6056632;23;20018;-79
2023/07/06 09:52:11;;;;;;;6.97;1.88;;;28.10;71.70;;;;;;6031735;23;20021;-80
2023/07/06 09:54:49;;;;;;;3.78;1.33;;;27.90;70.10;;;;;;6033063;23;20093;-79
2023/07/06 09:57:18;;;;;;;2.90;1.00;;;27.90;70.40;;;;;;6029175;23;20441;-82
2023/07/06 09:59:45;;;;;;;4.82;1.52;;;27.60;70.70;;;;;;6032323;23;20333;-80
2023/07/06 10:02:24;;;;;;;5.22;1.50;;;27.70;67.60;;;;;;6056614;23;20018;-80
2023/07/06 10:05:06;;;;;;;5.53;1.40;;;27.70;68.20;;;;;;6086929;23;20017;-80
2023/07/06 10:07:42;;;;;;;4.07;1.67;;;28.20;70.70;;;;;;6107133;23;20101;-81
2023/07/06 10:10:36;;;;;;;4.82;1.58;;;28.70;68.90;;;;;;6087574;23;20678;-81
2023/07/06 10:13:06;;;;;;;4.13;1.20;;;28.70;69.10;;;;;;6023317;23;20090;-80
2023/07/06 10:15:51;;;;;;;3.65;1.17;;;28.70;64.10;;;;;;6060954;23;20478;-82
2023/07/06 10:18:33;;;;;;;3.80;1.20;;;28.50;63.60;;;;;;6053777;23;20531;-78
2023/07/06 10:21:08;;;;;;;5.65;1.88;;;28.50;62.70;;;;;;6038941;23;20076;-80
2023/07/06 10:23:58;;;;;;;3.75;1.20;;;29.10;67.70;;;;;;6083102;23;20028;-83
2023/07/06 10:26:47;;;;;;;2.38;1.13;;;29.40;64.10;;;;;;6110593;23;20025;-83
2023/07/06 10:29:17;;;;;;;6.07;1.50;;;30.20;65.70;;;;;;6043741;23;20041;-83
2023/07/06 10:31:52;;;;;;;3.75;1.48;;;30.10;60.70;;;;;;6067137;23;20030;-83
2023/07/06 10:34:32;;;;;;;1.48;0.68;;;29.40;61.30;;;;;;6038440;23;20014;-83
2023/07/06 10:36:59;;;;;;;1.20;1.00;;;29.80;61.50;;;;;;6080040;23;20014;-83
2023/07/06 10:39:24;;;;;;;6.78;1.80;;;30.30;58.50;;;;;;6057014;23;20750;-84
2023/07/06 10:42:01;;;;;;;5.00;1.10;;;30.10;63.20;;;;;;6054906;23;20014;-84
2023/07/06 10:44:46;;;;;;;2.83;1.42;;;30.80;63.00;;;;;;6078148;23;20022;-85
2023/07/06 10:47:36;;;;;;;3.13;1.03;;;30.90;60.20;;;;;;6032702;23;20412;-85
2023/07/06 10:50:07;;;;;;;4.15;1.50;;;31.40;60.00;;;;;;6054502;23;20089;-84
2023/07/06 10:52:42;;;;;;;3.47;1.20;;;31.30;60.10;;;;;;6055841;23;20628;-81
2023/07/06 10:55:34;;;;;;;2.15;0.88;;;30.80;57.90;;;;;;6085408;23;20010;-81
2023/07/06 10:58:19;;;;;;;4.68;1.25;;;31.00;60.50;;;;;;6059056;23;20041;-80
2023/07/06 11:00:46;;;;;;;5.05;1.30;;;31.40;59.60;;;;;;6061126;23;20181;-80
2023/07/06 11:03:14;;;;;;;3.42;0.80;;;31.20;60.70;;;;;;6061640;23;20085;-80
2023/07/06 11:05:52;;;;;;;1.33;0.82;;;31.40;59.90;;;;;;6039416;23;20081;-79
2023/07/06 11:08:39;;;;;;;2.67;1.08;;;31.40;58.00;;;;;;6038545;23;20002;-83
2023/07/06 11:11:12;;;;;;;3.15;1.20;;;31.60;57.40;;;;;;6067189;23;20436;-82
2023/07/06 11:13:44;;;;;;;7.80;1.40;;;31.90;56.70;;;;;;6041746;23;20026;-79
2023/07/06 11:16:17;;;;;;;3.03;1.50;;;32.00;56.00;;;;;;6060115;23;23070;-79
2023/07/06 11:18:46;;;;;;;3.47;0.90;;;32.10;55.30;;;;;;6063081;23;20026;-80
2023/07/06 11:21:44;;;;;;;3.53;1.17;;;31.90;55.50;;;;;;6056684;23;20014;-80
2023/07/06 11:24:15;;;;;;;1.70;0.98;;;31.10;54.70;;;;;;6061808;23;20017;-79
2023/07/06 11:26:57;;;;;;;4.22;1.25;;;31.40;57.60;;;;;;6062171;23;20081;-80
2023/07/06 11:29:28;;;;;;;1.90;1.50;;;31.80;54.60;;;;;;6037125;23;20504;-79
2023/07/06 11:32:04;;;;;;;2.80;1.20;;;31.40;56.60;;;;;;6058006;23;20082;-80
2023/07/06 11:34:39;;;;;;;3.33;1.17;;;31.90;56.40;;;;;;6084047;23;20098;-80
2023/07/06 11:37:15;;;;;;;1.77;0.93;;;32.20;52.60;;;;;;6080012;23;20088;-78
2023/07/06 11:39:49;;;;;;;2.63;1.10;;;32.30;53.40;;;;;;6062472;23;20380;-79
2023/07/06 11:42:31;;;;;;;3.28;1.00;;;32.60;54.90;;;;;;6035355;23;20025;-80
2023/07/06 11:44:56;;;;;;;4.10;1.08;;;33.00;54.00;;;;;;6023327;23;20057;-79
2023/07/06 11:48:06;;;;;;;2.20;1.00;;;33.10;54.40;;;;;;6069951;23;20353;-79
2023/07/06 11:50:36;;;;;;;5.78;1.20;;;33.40;54.00;;;;;;6076130;23;20014;-79
2023/07/06 11:53:17;;;;;;;3.83;1.13;;;33.30;52.20;;;;;;6066368;23;20023;-79
2023/07/06 11:55:54;;;;;;;1.58;1.05;;;33.20;53.70;;;;;;6087458;23;20503;-79
2023/07/06 12:01:20;;;;;;;3.42;1.08;;;33.60;51.50;;;;;;6065316;23;20085;-79
2023/07/06 12:03:49;;;;;;;2.42;1.17;;;33.70;51.80;;;;;;6052182;23;20009;-79
2023/07/06 12:06:17;;;;;;;3.40;1.00;;;33.60;50.50;;;;;;6060952;23;20014;-79
2023/07/06 12:08:44;;;;;;;2.65;1.65;;;33.40;51.00;;;;;;6035208;23;20018;-79
2023/07/06 12:11:14;;;;;;;2.58;1.10;;;33.20;50.40;;;;;;6059769;23;20010;-80
2023/07/06 12:13:42;;;;;;;1.40;1.00;;;33.10;50.90;;;;;;6037154;23;20022;-79
2023/07/06 12:16:13;;;;;;;1.92;1.08;;;32.90;51.00;;;;;;6032417;23;20033;-79
2023/07/06 12:18:39;;;;;;;3.80;1.15;;;32.70;50.80;;;;;;6082742;23;20017;-80
2023/07/06 12:21:05;;;;;;;1.73;0.93;;;32.50;49.70;;;;;;6039475;23;20018;-79
2023/07/06 12:23:32;;;;;;;3.17;1.58;;;32.40;50.30;;;;;;6031893;23;20014;-79
2023/07/06 12:25:57;;;;;;;2.97;1.10;;;32.20;49.70;;;;;;6059825;23;20033;-79
2023/07/06 12:28:29;;;;;;;6.55;1.00;;;32.10;49.70;;;;;;6086344;23;20084;-79
2023/07/06 12:30:58;;;;;;;2.25;1.02;;;32.10;51.60;;;;;;6062014;23;20145;-79
2023/07/06 12:33:23;;;;;;;4.45;1.30;;;32.20;51.20;;;;;;6085526;23;20468;-80
2023/07/06 12:35:49;;;;;;;2.50;1.20;;;32.40;49.10;;;;;;6044568;23;20072;-80
2023/07/06 12:38:16;;;;;;;3.20;1.40;;;32.30;48.90;;;;;;6085171;23;20068;-81
2023/07/06 12:40:41;;;;;;;2.60;1.38;;;32.20;48.90;;;;;;6061252;23;20018;-79
2023/07/06 12:43:16;;;;;;;3.53;1.30;;;32.20;50.50;;;;;;6062039;23;20125;-79
2023/07/06 12:45:41;;;;;;;2.20;1.20;;;32.00;49.30;;;;;;6062808;23;20507;-78
2023/07/06 12:48:18;;;;;;;2.65;1.60;;;31.80;49.70;;;;;;6057876;23;20567;-79
2023/07/06 12:50:46;;;;;;;2.40;1.48;;;31.80;50.20;;;;;;6034201;23;20010;-79
2023/07/06 12:53:13;;;;;;;3.50;1.38;;;31.80;49.70;;;;;;6056998;23;20483;-79
2023/07/06 12:55:41;;;;;;;1.67;1.02;;;31.90;49.80;;;;;;6037877;23;20006;-78
2023/07/06 12:58:15;;;;;;;4.82;1.50;;;31.80;51.20;;;;;;6062083;23;20591;-79